Burbank, Washington
Current Conditions -  °F | °C
As of 4:53 PM on Friday 28 Nov 2014 (Local Time) from KPSC Reporting Station
Few Clouds Few Clouds  
Wind Chill: 57°   Ceiling: Unl
Heat Index: 57°   Visibility: 10mi
Dew Point: 46°   Wind: 26mph
Humidity: 67%   Direction: 230°SW
Pressure: 29.34"   Gusts: 36mph
Location:  46.2°N, 119.02°W
Report Text: KPSC 290053Z 23023G31KT 10SM FEW095 14/08 A2934 RMK AO2 PK WND 22040/0024 SLP935 T01390078
Loading
Personal Weather Stations






























Interactive Weather Map New forecast layout! Learn more

10-Day Weather Forecast

Advertisements
Track Severe Weather on mobile